Time;durP1;ratioP1;P1;durP2;ratioP2;P2;SDS_P1;SDS_P2;PMS_P1;PMS_P2;Temp;Humidity;BMP_temperature;BMP_pressure;BME280_temperature;BME280_humidity;BME280_pressure;Samples;Min_cycle;Max_cycle;Signal;HPM_P1;HPM_P2
2021/07/31 00:02:51;;;;;;;7.87;5.50;;;;;;;24.11;48.87;97325.56;8402748;28;20243;-65
2021/07/31 00:07:01;;;;;;;10.80;5.13;;;;;;;24.14;48.73;97326.03;8388285;28;20494;-65
2021/07/31 00:11:09;;;;;;;6.93;5.70;;;;;;;24.23;48.37;97331.31;8388392;28;20203;-65
2021/07/31 00:15:17;;;;;;;7.80;5.50;;;;;;;24.13;48.62;97331.50;8388360;28;20199;-65
2021/07/31 00:19:22;;;;;;;6.70;5.30;;;;;;;24.03;49.06;97331.69;8388134;28;20224;-65
2021/07/31 00:23:32;;;;;;;6.10;5.10;;;;;;;24.12;48.67;97337.75;8387550;28;20211;-65
2021/07/31 00:27:43;;;;;;;6.83;5.20;;;;;;;24.06;48.96;97341.09;8387214;28;20399;-65
2021/07/31 00:31:49;;;;;;;9.87;5.07;;;;;;;23.94;49.33;97341.44;8386704;28;20204;-65
2021/07/31 00:35:57;;;;;;;8.03;4.87;;;;;;;23.91;49.15;97343.59;8387640;28;20399;-65
2021/07/31 00:40:09;;;;;;;6.67;4.67;;;;;;;23.99;49.30;97347.06;8412725;28;20250;-65
2021/07/31 00:44:23;;;;;;;6.07;4.93;;;;;;;23.88;49.32;97350.03;8419918;28;20204;-65
2021/07/31 00:48:39;;;;;;;10.67;4.77;;;;;;;23.86;49.70;97348.56;8408666;28;20203;-65
2021/07/31 00:52:53;;;;;;;10.83;5.30;;;;;;;23.71;50.25;97362.41;8415249;28;20226;-65
2021/07/31 00:57:12;;;;;;;8.17;5.30;;;;;;;23.70;50.05;97354.66;8419290;28;20231;-65
2021/07/31 01:01:28;;;;;;;8.40;5.10;;;;;;;23.65;50.15;97349.88;8418405;28;20242;-65
2021/07/31 01:05:51;;;;;;;9.37;5.20;;;;;;;23.62;49.54;97345.72;8419422;28;20203;-65
2021/07/31 01:10:12;;;;;;;7.03;4.77;;;;;;;23.60;48.91;97347.72;8419199;28;20202;-65
2021/07/31 01:14:24;;;;;;;5.63;4.10;;;;;;;23.56;48.59;97354.31;8419607;28;20490;-65
2021/07/31 01:18:45;;;;;;;9.00;4.13;;;;;;;23.54;48.81;97352.84;8416904;28;20544;-65
2021/07/31 01:23:00;;;;;;;5.90;4.10;;;;;;;23.43;49.08;97359.25;8419241;28;20237;-65
2021/07/31 01:27:20;;;;;;;6.53;4.60;;;;;;;23.45;48.84;97361.75;8418710;28;20365;-65
2021/07/31 01:31:37;;;;;;;7.30;4.13;;;;;;;23.26;48.99;97362.88;8415581;28;20206;-65
2021/07/31 01:35:59;;;;;;;6.73;3.70;;;;;;;23.29;48.64;97354.66;8417833;28;20210;-65
2021/07/31 01:40:27;;;;;;;7.60;3.90;;;;;;;23.28;48.48;97363.53;8418322;28;20226;-65
2021/07/31 01:44:35;;;;;;;7.50;3.80;;;;;;;23.23;48.20;97364.03;8418750;28;20308;-65
2021/07/31 01:48:47;;;;;;;4.33;3.67;;;;;;;23.20;48.25;97359.91;8417901;28;20199;-65
2021/07/31 01:53:06;;;;;;;8.03;3.10;;;;;;;23.14;48.14;97363.19;8418000;28;20229;-65
2021/07/31 01:57:40;;;;;;;4.27;3.30;;;;;;;23.00;47.76;97359.34;8418127;28;20214;-65
2021/07/31 02:01:53;;;;;;;5.37;3.70;;;;;;;23.03;48.31;97361.66;8417443;28;20336;-65
2021/07/31 02:06:13;;;;;;;7.13;3.30;;;;;;;23.01;48.10;97370.72;8417588;28;20291;-65
2021/07/31 02:10:32;;;;;;;5.33;3.60;;;;;;;22.95;48.10;97371.38;8417639;28;20387;-65
2021/07/31 02:14:58;;;;;;;5.43;3.10;;;;;;;22.92;48.39;97369.84;8417255;28;20203;-65
2021/07/31 02:19:07;;;;;;;4.97;3.20;;;;;;;22.89;48.34;97366.75;8416969;28;20226;-65
2021/07/31 02:23:23;;;;;;;6.47;3.30;;;;;;;22.81;48.40;97373.63;8412955;28;20230;-65
2021/07/31 02:27:43;;;;;;;4.97;3.10;;;;;;;22.86;47.86;97362.59;8417288;28;20386;-65
2021/07/31 02:32:06;;;;;;;6.03;3.20;;;;;;;22.69;48.07;97364.34;8416586;28;20203;-65
2021/07/31 02:36:23;;;;;;;4.63;3.37;;;;;;;22.70;48.50;97366.00;8416705;28;20202;-65
2021/07/31 02:40:50;;;;;;;6.83;3.07;;;;;;;22.74;48.08;97354.13;8416211;28;20328;-65
2021/07/31 02:45:04;;;;;;;8.80;3.17;;;;;;;22.61;48.19;97357.22;8416399;28;20246;-65
2021/07/31 02:49:27;;;;;;;6.73;2.67;;;;;;;22.64;47.95;97359.56;8416703;28;20199;-65
2021/07/31 02:53:40;;;;;;;4.33;2.83;;;;;;;22.55;48.13;97360.50;8414114;28;20297;-65
2021/07/31 02:57:53;;;;;;;6.17;2.70;;;;;;;22.57;48.02;97368.25;8415686;28;20265;-65
2021/07/31 03:02:19;;;;;;;5.23;2.57;;;;;;;22.53;48.42;97372.19;8415634;28;20310;-65
2021/07/31 03:06:41;;;;;;;4.80;2.50;;;;;;;22.44;48.44;97364.22;8415569;28;20205;-65
2021/07/31 03:11:01;;;;;;;7.03;3.00;;;;;;;22.29;48.83;97364.97;8414494;28;20228;-65
2021/07/31 03:15:31;;;;;;;4.53;2.60;;;;;;;22.29;48.89;97347.34;8415191;28;20199;-65
2021/07/31 03:19:41;;;;;;;5.50;2.33;;;;;;;22.27;48.89;97357.22;8415354;28;20490;-65
2021/07/31 03:23:51;;;;;;;3.67;2.40;;;;;;;22.14;49.00;97355.00;8414570;28;20256;-65
2021/07/31 03:28:10;;;;;;;7.87;2.70;;;;;;;22.02;49.43;97364.94;8415165;28;20202;-65
2021/07/31 03:32:29;;;;;;;6.20;2.70;;;;;;;22.20;48.84;97366.69;8415626;28;20211;-65
2021/07/31 03:36:51;;;;;;;3.17;2.57;;;;;;;22.09;49.07;97365.19;8416163;28;20269;-65
2021/07/31 03:41:23;;;;;;;5.07;2.67;;;;;;;22.03;49.17;97368.44;8412876;28;20241;-65
2021/07/31 03:45:43;;;;;;;6.37;2.23;;;;;;;22.01;48.59;97367.75;8414579;28;20198;-65
2021/07/31 03:49:54;;;;;;;2.40;2.20;;;;;;;22.05;48.53;97380.47;8413551;28;20524;-65
2021/07/31 03:54:10;;;;;;;3.13;2.00;;;;;;;21.91;48.50;97377.56;8412372;28;20234;-65
2021/07/31 03:58:40;;;;;;;5.77;2.07;;;;;;;21.83;47.92;97373.88;8410179;28;20199;-65
2021/07/31 04:02:55;;;;;;;4.40;2.10;;;;;;;21.75;47.83;97383.53;8414404;28;20243;-65
2021/07/31 04:07:04;;;;;;;3.50;1.97;;;;;;;21.82;46.73;97374.06;8414926;28;20203;-65
2021/07/31 04:11:08;;;;;;;7.63;2.17;;;;;;;21.73;46.87;97383.69;8415511;28;20204;-65
2021/07/31 04:15:29;;;;;;;5.40;1.93;;;;;;;21.80;46.24;97384.75;8415664;28;20493;-65
2021/07/31 04:19:48;;;;;;;6.70;1.83;;;;;;;21.82;46.00;97384.59;8414717;28;20205;-65
2021/07/31 04:24:07;;;;;;;6.10;2.03;;;;;;;21.76;45.66;97378.13;8415075;28;20228;-64
2021/07/31 04:28:21;;;;;;;8.30;2.00;;;;;;;21.76;45.57;97390.47;8415324;28;20426;-65
2021/07/31 04:32:45;;;;;;;5.80;2.10;;;;;;;21.79;45.85;97395.44;8414718;28;20274;-65
2021/07/31 04:37:15;;;;;;;4.30;2.00;;;;;;;21.71;45.78;97398.00;8415546;28;20199;-65
2021/07/31 04:41:33;;;;;;;4.23;1.70;;;;;;;21.66;45.70;97401.91;8421067;28;20531;-65
2021/07/31 04:45:46;;;;;;;4.97;2.10;;;;;;;21.78;45.70;97404.31;8419325;28;20387;-65
2021/07/31 04:50:08;;;;;;;3.97;2.10;;;;;;;21.75;45.87;97402.81;8420687;28;20203;-64
2021/07/31 04:54:30;;;;;;;8.10;1.80;;;;;;;21.82;45.64;97403.88;8419962;28;20223;-65
2021/07/31 04:58:45;;;;;;;4.07;2.10;;;;;;;21.85;45.52;97408.81;8419871;28;20202;-65
2021/07/31 05:02:58;;;;;;;6.20;1.60;;;;;;;21.79;44.81;97406.78;8419566;28;20242;-65
2021/07/31 05:07:20;;;;;;;7.93;1.70;;;;;;;21.75;44.67;97415.16;8420114;28;20206;-64
2021/07/31 05:11:37;;;;;;;7.97;2.10;;;;;;;21.66;44.44;97407.16;8419586;28;20207;-65
2021/07/31 05:15:58;;;;;;;6.13;1.97;;;;;;;21.76;44.68;97414.16;8419538;28;20212;-64
2021/07/31 05:20:16;;;;;;;8.60;1.87;;;;;;;21.75;43.73;97405.44;8419221;28;20213;-65
2021/07/31 05:24:53;;;;;;;9.33;1.97;;;;;;;21.93;43.35;97409.88;8419209;28;20293;-65
2021/07/31 05:29:06;;;;;;;7.30;1.93;;;;;;;21.93;43.82;97409.88;8416316;28;20262;-65
2021/07/31 05:33:21;;;;;;;4.07;1.87;;;;;;;21.93;43.92;97408.03;8413249;28;20431;-65
2021/07/31 05:37:33;;;;;;;5.20;1.83;;;;;;;22.02;43.95;97415.03;8401521;28;20197;-65
2021/07/31 05:41:52;;;;;;;6.80;2.10;;;;;;;22.14;44.11;97412.16;8401336;28;20220;-65
2021/07/31 05:46:04;;;;;;;6.33;2.17;;;;;;;22.16;43.42;97404.91;8400303;28;20485;-65
2021/07/31 05:50:13;;;;;;;9.80;2.00;;;;;;;22.26;43.53;97418.88;8399570;28;20509;-64
2021/07/31 05:54:36;;;;;;;4.97;1.97;;;;;;;22.28;42.60;97421.38;8400445;28;20282;-64
2021/07/31 05:58:48;;;;;;;5.50;1.50;;;;;;;22.22;42.13;97422.78;8400953;28;20387;-64
2021/07/31 06:02:51;;;;;;;7.93;1.80;;;;;;;22.18;41.63;97429.31;8400975;28;20235;-65
2021/07/31 06:07:06;;;;;;;4.70;1.60;;;;;;;22.21;41.41;97440.38;8400762;28;20530;-65
2021/07/31 06:11:19;;;;;;;5.93;1.77;;;;;;;22.35;40.67;97446.13;8400457;28;20202;-65
2021/07/31 06:15:44;;;;;;;6.23;1.87;;;;;;;22.57;40.30;97442.13;8384057;28;20199;-64
2021/07/31 06:19:49;;;;;;;3.47;1.47;;;;;;;22.77;40.22;97438.28;8383793;28;20226;-65
2021/07/31 06:23:53;;;;;;;4.80;1.57;;;;;;;22.74;39.74;97440.41;8393874;28;20233;-65
2021/07/31 06:28:09;;;;;;;4.87;1.70;;;;;;;22.87;39.39;97440.00;8416971;28;20191;-65
2021/07/31 06:32:17;;;;;;;4.50;1.70;;;;;;;22.75;38.99;97450.81;8416584;28;20392;-65
2021/07/31 06:36:31;;;;;;;5.27;1.63;;;;;;;22.83;38.97;97450.03;8416796;28;20305;-65
2021/07/31 06:40:45;;;;;;;5.13;1.40;;;;;;;23.16;38.90;97450.19;8416913;28;20198;-65
2021/07/31 06:44:57;;;;;;;5.17;1.73;;;;;;;23.10;38.94;97456.94;8416042;28;20233;-65
2021/07/31 06:49:13;;;;;;;6.30;1.57;;;;;;;23.26;38.74;97453.50;8416156;28;20520;-65
2021/07/31 06:53:19;;;;;;;4.90;1.87;;;;;;;23.37;38.46;97455.84;8393311;28;20237;-65
2021/07/31 06:57:27;;;;;;;4.80;1.60;;;;;;;23.35;37.95;97449.91;8385812;28;20199;-65
2021/07/31 07:01:32;;;;;;;6.47;1.80;;;;;;;23.59;37.92;97457.06;8388047;28;20300;-66
2021/07/31 07:05:41;;;;;;;3.87;2.17;;;;;;;23.87;41.34;97458.63;8415991;28;20281;-72
2021/07/31 07:09:45;;;;;;;6.40;2.20;;;;;;;24.13;39.55;97453.16;8416294;28;20279;-72
2021/07/31 07:13:49;;;;;;;8.83;1.90;;;;;;;24.14;38.29;97458.28;8416108;28;20202;-74
2021/07/31 07:17:57;;;;;;;4.53;2.00;;;;;;;24.29;37.53;97454.97;8416103;28;20213;-66
2021/07/31 07:22:04;;;;;;;9.00;2.40;;;;;;;24.37;36.45;97447.03;8416071;28;20289;-65
2021/07/31 07:26:13;;;;;;;6.63;2.20;;;;;;;24.38;36.79;97443.38;8416079;28;20203;-65
2021/07/31 07:30:18;;;;;;;5.97;2.00;;;;;;;24.61;36.12;97445.34;8407916;28;20200;-65
2021/07/31 07:34:23;;;;;;;4.30;1.97;;;;;;;24.73;35.83;97442.19;8382018;28;20203;-66
2021/07/31 07:38:32;;;;;;;4.57;2.00;;;;;;;25.07;36.33;97435.72;8408573;28;20498;-65
2021/07/31 07:42:44;;;;;;;7.67;2.30;;;;;;;25.10;35.39;97431.94;8415761;28;20226;-65
2021/07/31 07:46:49;;;;;;;7.63;1.80;;;;;;;24.96;35.26;97425.53;8415673;28;20207;-65
2021/07/31 07:50:53;;;;;;;5.03;1.70;;;;;;;24.87;35.02;97435.34;8395714;28;20200;-65
2021/07/31 07:55:00;;;;;;;10.63;1.67;;;;;;;25.50;34.14;97430.91;8415764;28;20210;-65
2021/07/31 07:59:05;;;;;;;6.97;1.90;;;;;;;25.74;33.73;97431.72;8415149;28;20204;-65
2021/07/31 08:03:08;;;;;;;5.17;1.83;;;;;;;25.24;33.79;97441.00;8415300;28;20240;-65
2021/07/31 08:07:16;;;;;;;4.67;1.90;;;;;;;25.53;33.73;97438.50;8415374;28;20381;-65
2021/07/31 08:11:23;;;;;;;4.37;1.53;;;;;;;26.12;33.20;97435.28;8417988;28;20217;-65
2021/07/31 08:15:29;;;;;;;4.57;1.90;;;;;;;26.27;32.72;97434.47;8421579;28;20216;-65
2021/07/31 08:19:41;;;;;;;6.37;2.27;;;;;;;25.68;33.40;97440.38;8420568;28;20223;-65
2021/07/31 08:23:54;;;;;;;6.20;2.07;;;;;;;26.09;32.65;97438.28;8421015;28;20407;-66
2021/07/31 08:28:09;;;;;;;7.70;1.97;;;;;;;26.55;31.93;97442.66;8420839;28;20423;-65
2021/07/31 08:32:39;;;;;;;4.40;1.67;;;;;;;26.34;32.19;97449.47;8420939;28;20206;-65
2021/07/31 08:36:44;;;;;;;3.83;1.50;;;;;;;26.95;31.70;97442.41;8420416;28;20255;-65
2021/07/31 08:40:50;;;;;;;6.30;1.70;;;;;;;26.85;31.04;97448.81;8420674;28;20248;-65
2021/07/31 08:45:06;;;;;;;3.83;1.60;;;;;;;27.06;30.61;97441.94;8402712;28;20229;-66
2021/07/31 08:49:19;;;;;;;6.43;1.60;;;;;;;26.87;31.04;97438.84;8401923;28;20199;-66
2021/07/31 08:53:28;;;;;;;5.67;1.33;;;;;;;26.18;33.20;97441.69;8404280;28;20222;-69
2021/07/31 08:57:41;;;;;;;8.20;1.97;;;;;;;26.10;32.42;97441.75;8402440;28;20260;-68
2021/07/31 09:01:52;;;;;;;5.40;2.00;;;;;;;25.72;34.19;97445.19;8402360;28;20388;-70
2021/07/31 09:06:06;;;;;;;6.27;1.40;;;;;;;26.71;32.16;97449.63;8401594;28;20535;-69
2021/07/31 09:10:31;;;;;;;8.50;1.87;;;;;;;26.67;31.27;97432.41;8401918;28;20516;-69
2021/07/31 09:14:58;;;;;;;7.33;2.17;;;;;;;27.25;30.25;97438.72;8402264;28;20207;-69
2021/07/31 09:19:08;;;;;;;5.63;2.03;;;;;;;27.17;30.72;97446.78;8402027;28;20194;-70
2021/07/31 09:23:22;;;;;;;4.27;1.60;;;;;;;28.14;30.25;97436.72;8401304;28;20232;-70
2021/07/31 09:27:32;;;;;;;6.93;1.53;;;;;;;27.88;29.51;97438.13;8384276;28;20265;-71
2021/07/31 09:31:49;;;;;;;9.10;1.33;;;;;;;27.82;28.76;97430.91;8384394;28;20203;-70
2021/07/31 09:36:05;;;;;;;3.50;1.50;;;;;;;27.79;28.88;97429.44;8384460;28;20533;-70
2021/07/31 09:40:13;;;;;;;6.83;1.60;;;;;;;28.66;29.15;97436.31;8401548;28;20512;-71
2021/07/31 09:44:22;;;;;;;5.93;1.70;;;;;;;28.32;29.35;97434.41;8401287;28;20233;-70
2021/07/31 09:48:32;;;;;;;4.43;1.50;;;;;;;28.66;28.61;97435.50;8401230;28;20193;-70
2021/07/31 09:52:47;;;;;;;6.43;1.43;;;;;;;29.16;27.68;97430.84;8402659;28;20279;-71
2021/07/31 09:57:05;;;;;;;4.87;1.67;;;;;;;28.67;28.20;97434.47;8400965;28;20372;-71
2021/07/31 10:01:23;;;;;;;4.17;1.67;;;;;;;29.02;27.18;97435.28;8400463;28;20233;-71
2021/07/31 10:05:34;;;;;;;6.23;1.63;;;;;;;28.24;27.72;97438.06;8400451;28;20274;-71
2021/07/31 10:09:55;;;;;;;7.07;1.60;;;;;;;29.08;26.68;97432.84;8396529;28;20258;-71
2021/07/31 10:14:08;;;;;;;3.10;1.50;;;;;;;28.92;26.72;97434.81;8400041;28;20195;-71
2021/07/31 10:18:12;;;;;;;4.10;1.63;;;;;;;29.67;26.52;97418.06;8399601;28;20238;-72
2021/07/31 10:22:16;;;;;;;4.90;1.40;;;;;;;29.13;26.51;97439.25;8398654;28;20384;-71
2021/07/31 10:26:24;;;;;;;5.27;1.57;;;;;;;29.41;26.06;97425.78;8399924;28;20226;-71
2021/07/31 10:30:34;;;;;;;10.40;1.33;;;;;;;28.72;27.56;97444.53;8392878;28;20282;-71
2021/07/31 10:34:53;;;;;;;3.07;1.47;;;;;;;29.05;27.40;97426.88;8400153;28;20310;-71
2021/07/31 10:39:01;;;;;;;8.53;1.30;;;;;;;28.25;27.21;97439.72;8397337;28;20224;-71
2021/07/31 10:43:11;;;;;;;8.17;1.80;;;;;;;27.28;28.83;97440.16;8399183;28;20417;-71
2021/07/31 10:47:38;;;;;;;5.30;1.90;;;;;;;27.49;28.93;97434.06;8391078;28;20193;-70
2021/07/31 10:51:43;;;;;;;4.77;1.67;;;;;;;26.92;30.67;97438.25;8398433;28;20223;-70
2021/07/31 10:56:04;;;;;;;3.27;1.57;;;;;;;27.52;29.33;97433.69;8397076;28;20432;-70
2021/07/31 11:00:24;;;;;;;4.87;1.30;;;;;;;27.78;29.41;97433.13;8388146;28;20222;-70
2021/07/31 11:04:58;;;;;;;6.40;1.63;;;;;;;28.30;27.97;97441.78;8397259;28;20526;-71
2021/07/31 11:09:18;;;;;;;5.63;1.40;;;;;;;28.77;29.00;97432.28;8398510;28;20233;-70
2021/07/31 11:13:51;;;;;;;3.17;1.50;;;;;;;27.61;29.64;97418.44;8398629;28;20266;-70
2021/07/31 11:18:02;;;;;;;7.37;2.00;;;;;;;27.81;29.99;97429.25;8395872;28;20230;-70
2021/07/31 11:22:18;;;;;;;9.77;1.97;;;;;;;27.67;29.56;97434.47;8397261;28;20309;-70
2021/07/31 11:26:45;;;;;;;4.67;1.50;;;;;;;27.17;29.83;97429.97;8398045;28;20530;-70
2021/07/31 11:30:50;;;;;;;5.87;1.43;;;;;;;27.24;30.50;97437.03;8396072;28;20280;-71
2021/07/31 11:35:02;;;;;;;3.37;1.60;;;;;;;27.39;30.75;97423.72;8393227;28;20202;-71
2021/07/31 11:39:06;;;;;;;6.23;1.90;;;;;;;27.60;30.79;97424.75;8408157;28;20196;-71
2021/07/31 11:43:13;;;;;;;5.47;1.70;;;;;;;27.64;31.03;97426.03;8415720;28;20199;-71
2021/07/31 11:47:33;;;;;;;10.17;2.03;;;;;;;28.14;28.83;97434.91;8421827;28;20427;-70
2021/07/31 11:51:53;;;;;;;6.23;1.97;;;;;;;27.07;30.19;97431.13;8403334;28;20227;-70
2021/07/31 11:56:19;;;;;;;16.03;11.10;;;;;;;28.02;29.93;97431.13;8422348;28;20354;-70
2021/07/31 12:00:33;;;;;;;7.97;4.70;;;;;;;27.27;30.32;97436.69;8405007;28;20236;-70
2021/07/31 12:04:57;;;;;;;7.53;4.33;;;;;;;27.34;30.07;97417.34;8388835;28;20255;-70
2021/07/31 12:09:34;;;;;;;10.27;5.37;;;;;;;27.17;30.99;97422.84;8386133;28;20399;-70
2021/07/31 12:13:48;;;;;;;11.83;4.50;;;;;;;27.35;32.31;97433.09;8387705;28;20208;-70
2021/07/31 12:18:13;;;;;;;6.37;2.47;;;;;;;27.69;29.63;97426.28;8387110;28;20204;-70
2021/07/31 12:22:24;;;;;;;8.10;3.20;;;;;;;28.55;28.73;97422.72;8386852;28;20233;-70
2021/07/31 12:26:57;;;;;;;8.10;3.30;;;;;;;27.82;28.88;97425.59;8387129;28;20238;-70
2021/07/31 12:31:25;;;;;;;6.30;2.50;;;;;;;27.34;30.21;97423.50;8387520;28;20210;-70
2021/07/31 12:35:43;;;;;;;5.37;2.67;;;;;;;27.96;29.86;97415.91;8388130;28;20203;-70
2021/07/31 12:40:07;;;;;;;13.80;2.60;;;;;;;27.93;29.64;97403.84;8387344;28;20210;-69
2021/07/31 12:44:31;;;;;;;4.83;2.30;;;;;;;28.08;29.17;97398.41;8380911;28;20224;-70
2021/07/31 12:48:46;;;;;;;16.27;2.10;;;;;;;27.50;29.88;97404.63;8387044;28;20202;-70
2021/07/31 12:53:06;;;;;;;6.63;2.00;;;;;;;28.40;28.47;97412.97;8412169;28;20223;-70
2021/07/31 12:57:25;;;;;;;9.50;2.83;;;;;;;27.97;29.81;97407.75;8416312;28;20204;-70
2021/07/31 13:01:42;;;;;;;6.33;1.80;;;;;;;28.64;27.91;97416.22;8402038;28;20284;-70
2021/07/31 13:05:56;;;;;;;8.93;1.83;;;;;;;27.74;29.36;97415.91;8406063;28;20281;-70
2021/07/31 13:10:10;;;;;;;5.90;1.60;;;;;;;27.60;29.88;97412.28;8413056;28;20203;-69
2021/07/31 13:14:16;;;;;;;7.63;1.70;;;;;;;28.39;29.00;97413.19;8405686;28;20200;-70
2021/07/31 13:18:41;;;;;;;9.27;2.63;;;;;;;27.97;29.04;97409.56;8390935;28;20197;-69
2021/07/31 13:22:57;;;;;;;5.63;1.97;;;;;;;28.10;29.11;97420.31;8385922;28;20257;-69
2021/07/31 13:27:15;;;;;;;6.10;1.73;;;;;;;28.91;28.38;97401.19;8386291;28;20247;-69
2021/07/31 13:31:32;;;;;;;6.10;1.97;;;;;;;28.92;28.12;97386.00;8383064;28;20203;-69
2021/07/31 13:35:51;;;;;;;9.13;1.97;;;;;;;29.27;28.08;97397.44;8388286;28;21307;-76
2021/07/31 13:40:15;;;;;;;5.03;2.00;;;;;;;28.59;27.99;97397.34;8401576;28;20200;-70
2021/07/31 13:44:20;;;;;;;4.47;1.67;;;;;;;29.03;26.72;97378.28;8399804;28;20223;-70
2021/07/31 13:48:32;;;;;;;8.07;2.00;;;;;;;29.18;26.84;97391.47;8396428;28;20260;-68
2021/07/31 13:52:42;;;;;;;7.33;2.20;;;;;;;28.06;27.67;97392.44;8401222;28;20225;-69
2021/07/31 13:56:55;;;;;;;3.80;1.90;;;;;;;27.71;28.34;97391.53;8401051;28;20199;-68
2021/07/31 14:01:04;;;;;;;3.50;1.73;;;;;;;28.48;27.81;97396.00;8383681;28;20269;-69
2021/07/31 14:05:16;;;;;;;5.83;1.63;;;;;;;28.36;28.46;97387.75;8384009;28;20221;-68
2021/07/31 14:09:42;;;;;;;7.67;1.90;;;;;;;28.87;27.90;97380.47;8382674;28;20246;-68
2021/07/31 14:13:47;;;;;;;5.23;2.03;;;;;;;29.12;27.76;97384.25;8383094;28;20194;-68
2021/07/31 14:17:57;;;;;;;28.43;2.77;;;;;;;28.87;27.97;97385.81;8397273;28;20261;-69
2021/07/31 14:22:06;;;;;;;7.87;1.80;;;;;;;28.53;27.69;97396.28;8399289;28;20196;-69
2021/07/31 14:26:22;;;;;;;5.77;1.93;;;;;;;28.54;28.25;97389.94;8399736;28;20550;-69
2021/07/31 14:30:31;;;;;;;12.33;1.70;;;;;;;28.59;28.66;97384.03;8383304;28;20202;-68
2021/07/31 14:34:49;;;;;;;4.23;1.97;;;;;;;28.62;28.04;97375.66;8382937;28;20506;-68
2021/07/31 14:38:53;;;;;;;4.60;1.83;;;;;;;28.41;28.68;97380.00;8383071;28;20192;-68
2021/07/31 14:42:59;;;;;;;6.80;2.07;;;;;;;28.37;28.89;97392.06;8396415;28;20209;-69
2021/07/31 14:47:13;;;;;;;6.47;1.90;;;;;;;28.15;29.10;97401.94;8400672;28;20223;-68
2021/07/31 14:51:19;;;;;;;5.57;1.90;;;;;;;28.13;29.79;97398.66;8399933;28;20581;-68
2021/07/31 14:55:32;;;;;;;5.07;1.93;;;;;;;27.63;29.70;97380.00;8398949;28;20207;-68
2021/07/31 14:59:38;;;;;;;6.37;1.83;;;;;;;27.25;30.79;97380.25;8398759;28;20199;-68
2021/07/31 15:03:51;;;;;;;7.30;1.80;;;;;;;27.31;30.33;97386.66;8394220;28;20233;-68
2021/07/31 15:07:59;;;;;;;6.13;1.80;;;;;;;27.86;28.79;97371.81;8396135;28;20294;-68
2021/07/31 15:12:10;;;;;;;9.47;1.87;;;;;;;27.87;28.75;97364.63;8382597;28;20199;-68
2021/07/31 15:16:15;;;;;;;9.40;2.30;;;;;;;27.88;28.96;97368.97;8383024;28;20211;-67
2021/07/31 15:20:38;;;;;;;9.27;1.97;;;;;;;27.94;29.34;97362.91;8381434;28;20213;-65
2021/07/31 15:24:58;;;;;;;10.20;2.43;;;;;;;27.73;29.30;97363.72;8382943;28;20241;-65
2021/07/31 15:29:03;;;;;;;6.00;2.20;;;;;;;27.75;29.92;97350.22;8382668;28;20205;-65
2021/07/31 15:33:16;;;;;;;5.23;2.13;;;;;;;27.60;29.51;97337.00;8382727;28;20268;-65
2021/07/31 15:37:27;;;;;;;7.47;1.90;;;;;;;27.33;30.24;97335.94;8380572;28;20209;-65
2021/07/31 15:41:44;;;;;;;7.57;1.90;;;;;;;27.22;30.63;97331.91;8382233;28;20278;-65
2021/07/31 15:46:00;;;;;;;7.03;1.97;;;;;;;26.94;31.26;97323.84;8382455;28;20418;-65
2021/07/31 15:50:14;;;;;;;7.83;1.90;;;;;;;26.83;31.94;97325.19;8383179;28;20201;-65
2021/07/31 15:54:19;;;;;;;7.63;2.10;;;;;;;26.82;31.24;97327.00;8415516;28;20383;-65
2021/07/31 15:58:24;;;;;;;7.07;2.23;;;;;;;26.75;31.40;97314.66;8414021;28;20196;-65
2021/07/31 16:02:28;;;;;;;5.60;1.90;;;;;;;26.54;31.69;97321.53;8415159;28;20568;-65
2021/07/31 16:06:32;;;;;;;6.33;2.20;;;;;;;26.48;31.94;97325.75;8415129;28;20220;-65
2021/07/31 16:10:37;;;;;;;8.23;1.80;;;;;;;26.41;31.40;97321.38;8415416;28;20537;-65
2021/07/31 16:14:40;;;;;;;5.43;1.87;;;;;;;26.37;31.84;97325.38;8415241;28;20200;-65
2021/07/31 16:18:44;;;;;;;10.47;4.90;;;;;;;26.45;32.13;97309.38;8415123;28;20515;-66
2021/07/31 16:22:49;;;;;;;24.63;16.93;;;;;;;26.39;32.29;97321.53;8415213;28;20206;-65
2021/07/31 16:26:52;;;;;;;11.30;7.10;;;;;;;26.29;32.45;97307.72;8414797;28;20230;-65
2021/07/31 16:31:08;;;;;;;6.03;2.97;;;;;;;26.11;32.20;97313.41;8415988;28;20209;-65
2021/07/31 16:35:13;;;;;;;6.53;2.67;;;;;;;26.13;32.61;97322.81;8387983;28;20392;-65
2021/07/31 16:39:17;;;;;;;10.60;5.10;;;;;;;26.24;33.16;97326.03;8395696;28;20216;-66
2021/07/31 16:43:21;;;;;;;17.97;14.10;;;;;;;26.39;32.21;97320.69;8407328;28;20215;-66
2021/07/31 16:47:24;;;;;;;22.67;17.53;;;;;;;26.40;32.98;97320.53;8403090;28;20223;-66
2021/07/31 16:51:29;;;;;;;40.60;31.87;;;;;;;26.39;32.24;97316.25;8401495;28;20432;-65
2021/07/31 16:55:35;;;;;;;9.50;4.90;;;;;;;26.23;32.24;97327.84;8405412;28;20215;-64
2021/07/31 16:59:39;;;;;;;12.27;6.03;;;;;;;26.06;32.99;97329.84;8397095;28;20194;-65
2021/07/31 17:03:42;;;;;;;9.67;5.03;;;;;;;25.86;33.55;97337.50;8402841;28;20228;-65
2021/07/31 17:07:46;;;;;;;6.60;3.30;;;;;;;25.71;33.49;97333.97;8403173;28;20218;-66
2021/07/31 17:11:52;;;;;;;9.97;2.97;;;;;;;25.69;33.01;97331.50;8402577;28;20207;-66
2021/07/31 17:15:55;;;;;;;9.00;5.53;;;;;;;25.72;33.94;97325.00;8385668;28;20490;-65
2021/07/31 17:19:59;;;;;;;9.90;6.33;;;;;;;25.62;33.53;97338.53;8385569;28;20266;-65
2021/07/31 17:24:02;;;;;;;9.10;4.47;;;;;;;25.54;34.07;97331.47;8386328;28;20413;-65
2021/07/31 17:28:09;;;;;;;10.40;3.70;;;;;;;25.56;33.74;97333.94;8386305;28;20422;-65
2021/07/31 17:32:13;;;;;;;8.60;3.53;;;;;;;25.46;34.11;97341.31;8385867;28;20200;-65
2021/07/31 17:36:18;;;;;;;8.43;3.30;;;;;;;25.52;34.37;97346.72;8416605;28;20487;-64
2021/07/31 17:40:23;;;;;;;7.50;3.07;;;;;;;25.47;34.41;97346.41;8418279;28;20202;-64
2021/07/31 17:44:28;;;;;;;18.00;3.23;;;;;;;25.43;34.36;97342.47;8418278;28;20270;-65
2021/07/31 17:48:32;;;;;;;7.20;2.30;;;;;;;25.45;34.41;97350.25;8385773;28;20255;-65
2021/07/31 17:52:37;;;;;;;7.63;2.47;;;;;;;25.42;34.50;97372.66;8408092;28;20233;-64
2021/07/31 17:56:43;;;;;;;6.70;2.07;;;;;;;25.38;34.65;97370.50;8418536;28;20235;-64
2021/07/31 18:00:48;;;;;;;6.37;2.47;;;;;;;25.35;35.09;97353.97;8418304;28;20237;-64
2021/07/31 18:04:52;;;;;;;6.47;2.20;;;;;;;25.29;34.98;97357.31;8417855;28;20199;-64
2021/07/31 18:09:00;;;;;;;5.47;2.03;;;;;;;25.30;34.78;97369.59;8417822;28;20220;-65
2021/07/31 18:13:07;;;;;;;6.93;2.13;;;;;;;25.17;35.04;97362.19;8418017;28;20206;-66
2021/07/31 18:17:19;;;;;;;10.77;2.47;;;;;;;25.16;35.40;97360.53;8417575;28;20210;-64
2021/07/31 18:21:33;;;;;;;4.70;2.20;;;;;;;25.10;35.19;97371.00;8417486;28;20200;-64
2021/07/31 18:25:43;;;;;;;5.57;2.27;;;;;;;25.02;35.34;97373.69;8416667;28;20237;-64
2021/07/31 18:29:53;;;;;;;6.10;2.40;;;;;;;24.96;34.99;97378.69;8415665;28;20245;-64
2021/07/31 18:33:59;;;;;;;4.07;1.93;;;;;;;24.94;35.57;97372.75;8417433;28;20203;-64
2021/07/31 18:38:07;;;;;;;8.17;3.00;;;;;;;24.83;35.95;97380.22;8417213;28;20203;-66
2021/07/31 18:42:12;;;;;;;11.40;5.80;;;;;;;24.74;36.13;97372.31;8417219;28;20495;-64
2021/07/31 18:46:24;;;;;;;13.00;6.53;;;;;;;24.70;36.76;97376.31;8416656;28;20558;-64
2021/07/31 18:50:31;;;;;;;14.60;7.53;;;;;;;24.67;36.51;97368.72;8416770;28;20382;-64
2021/07/31 18:54:41;;;;;;;14.07;9.00;;;;;;;24.65;36.68;97365.41;8415524;28;20200;-65
2021/07/31 18:58:49;;;;;;;14.20;5.03;;;;;;;24.56;37.40;97371.72;8416818;28;20203;-64
2021/07/31 19:02:53;;;;;;;5.83;2.27;;;;;;;24.52;37.70;97367.78;8416883;28;20242;-64
2021/07/31 19:07:01;;;;;;;4.50;1.97;;;;;;;24.47;37.24;97373.56;8416399;28;20231;-64
2021/07/31 19:11:09;;;;;;;9.27;2.33;;;;;;;24.41;37.47;97371.59;8416748;28;20209;-64
2021/07/31 19:15:15;;;;;;;10.43;5.57;;;;;;;24.31;38.28;97370.94;8416322;28;20395;-64
2021/07/31 19:19:20;;;;;;;9.90;4.30;;;;;;;24.24;38.97;97369.97;8415939;28;20274;-65
2021/07/31 19:23:33;;;;;;;7.37;3.60;;;;;;;24.22;39.05;97378.09;8415355;28;20316;-64
2021/07/31 19:27:37;;;;;;;4.50;2.77;;;;;;;24.03;39.99;97367.84;8415811;28;20252;-65
2021/07/31 19:31:47;;;;;;;7.90;2.50;;;;;;;23.96;40.03;97379.13;8415801;28;20230;-64
2021/07/31 19:35:57;;;;;;;6.03;2.67;;;;;;;23.91;40.57;97394.69;8415977;28;20206;-64
2021/07/31 19:40:07;;;;;;;7.20;3.27;;;;;;;23.76;41.11;97388.34;8415718;28;20199;-64
2021/07/31 19:44:16;;;;;;;5.80;3.40;;;;;;;23.64;42.18;97387.03;8416092;28;20202;-65
2021/07/31 19:48:22;;;;;;;12.83;3.90;;;;;;;23.69;41.63;97384.72;8415419;28;20253;-65